Time;durP1;ratioP1;P1;durP2;ratioP2;P2;SDS_P1;SDS_P2;PMS_P1;PMS_P2;Temp;Humidity;BMP_temperature;BMP_pressure;BME280_temperature;BME280_humidity;BME280_pressure;Samples;Min_cycle;Max_cycle;Signal;HPM_P1;HPM_P2
2021/06/11 00:00:33;;;;;;;11.30;10.27;;;16.90;99.90;;;;;;5053822;28;20634;-46
2021/06/11 00:03:02;;;;;;;9.20;8.40;;;16.80;99.90;;;;;;5053835;28;20299;-45
2021/06/11 00:05:30;;;;;;;9.38;8.38;;;16.80;99.90;;;;;;5053625;28;20669;-44
2021/06/11 00:07:57;;;;;;;11.38;9.73;;;16.80;99.90;;;;;;5053748;28;20282;-43
2021/06/11 00:10:25;;;;;;;12.32;9.55;;;16.70;99.90;;;;;;5054069;28;20247;-43
2021/06/11 00:12:52;;;;;;;11.40;9.13;;;16.60;99.90;;;;;;5053535;28;20311;-44
2021/06/11 00:15:20;;;;;;;9.75;8.95;;;16.60;99.90;;;;;;5053577;28;20212;-43
2021/06/11 00:17:50;;;;;;;10.52;9.45;;;16.50;99.90;;;;;;5053698;28;20240;-46
2021/06/11 00:20:20;;;;;;;10.40;9.23;;;16.50;99.90;;;;;;5053459;28;20219;-43
2021/06/11 00:22:49;;;;;;;10.25;8.93;;;16.50;99.90;;;;;;5053475;28;20243;-48
2021/06/11 00:25:19;;;;;;;9.98;9.07;;;16.50;99.90;;;;;;5053104;28;20720;-45
2021/06/11 00:27:47;;;;;;;9.18;8.35;;;16.50;99.90;;;;;;5053092;28;20205;-44
2021/06/11 00:30:16;;;;;;;10.43;9.35;;;16.50;99.90;;;;;;5053180;28;20746;-46
2021/06/11 00:32:50;;;;;;;9.95;8.95;;;16.50;99.90;;;;;;5053015;28;20208;-44
2021/06/11 00:35:19;;;;;;;9.88;8.95;;;16.40;99.90;;;;;;5052989;28;20291;-45
2021/06/11 00:37:46;;;;;;;8.77;8.05;;;16.40;99.90;;;;;;5052698;28;20299;-42
2021/06/11 00:40:14;;;;;;;10.25;9.35;;;16.40;99.90;;;;;;5052880;28;20694;-43
2021/06/11 00:42:42;;;;;;;11.95;10.38;;;16.40;99.90;;;;;;5052959;28;20214;-45
2021/06/11 00:45:11;;;;;;;14.25;10.82;;;16.30;99.90;;;;;;5052830;28;20721;-44
2021/06/11 00:47:39;;;;;;;11.52;10.43;;;16.30;99.90;;;;;;5052983;28;20322;-45
2021/06/11 00:50:08;;;;;;;10.95;10.00;;;16.30;99.90;;;;;;5052854;28;20327;-42
2021/06/11 00:52:38;;;;;;;9.98;8.82;;;16.30;99.90;;;;;;5052930;28;20204;-43
2021/06/11 00:55:07;;;;;;;10.40;9.43;;;16.20;99.90;;;;;;5052723;28;20217;-44
2021/06/11 00:57:34;;;;;;;9.68;8.77;;;16.20;99.90;;;;;;5052718;28;20204;-44
2021/06/11 01:00:03;;;;;;;8.98;8.10;;;16.20;99.90;;;;;;5052723;28;20204;-45
2021/06/11 01:02:30;;;;;;;9.00;8.20;;;16.20;99.90;;;;;;5053010;28;20287;-43
2021/06/11 01:04:58;;;;;;;10.18;9.18;;;16.10;99.90;;;;;;5052794;28;20303;-43
2021/06/11 01:07:27;;;;;;;9.38;8.50;;;16.10;99.90;;;;;;5052496;28;20208;-46
2021/06/11 01:09:56;;;;;;;9.13;8.27;;;16.00;99.90;;;;;;5052475;28;20670;-44
2021/06/11 01:12:24;;;;;;;7.90;7.20;;;16.00;99.90;;;;;;5052124;28;20306;-43
2021/06/11 01:14:53;;;;;;;8.75;7.97;;;16.00;99.90;;;;;;5052563;28;20576;-43
2021/06/11 01:17:21;;;;;;;9.68;8.75;;;16.00;99.90;;;;;;5052470;28;20255;-43
2021/06/11 01:19:50;;;;;;;10.27;8.75;;;15.90;99.90;;;;;;5052310;28;20291;-43
2021/06/11 01:22:22;;;;;;;9.45;8.40;;;16.00;99.90;;;;;;5052278;28;20240;-44
2021/06/11 01:25:04;;;;;;;8.35;7.63;;;15.90;99.90;;;;;;5052583;28;20294;-44
2021/06/11 01:27:34;;;;;;;13.85;10.20;;;15.90;99.90;;;;;;5052351;28;20726;-45
2021/06/11 01:30:07;;;;;;;10.13;8.85;;;15.90;99.90;;;;;;5052287;28;20315;-45
2021/06/11 01:32:37;;;;;;;8.82;8.10;;;15.90;99.90;;;;;;5052548;28;20216;-43
2021/06/11 01:35:07;;;;;;;9.27;8.48;;;15.80;99.90;;;;;;5052441;28;20236;-43
2021/06/11 01:37:36;;;;;;;9.27;8.38;;;15.80;99.90;;;;;;5052289;28;20564;-44
2021/06/11 01:40:07;;;;;;;9.85;8.98;;;15.70;99.90;;;;;;5052217;28;20433;-44
2021/06/11 01:42:38;;;;;;;9.98;8.52;;;15.70;99.90;;;;;;5052132;28;20311;-46
2021/06/11 01:45:09;;;;;;;9.02;8.23;;;15.70;99.90;;;;;;5052196;28;20243;-48
2021/06/11 01:47:40;;;;;;;8.82;7.93;;;15.70;99.90;;;;;;5052075;28;20258;-43
2021/06/11 01:50:12;;;;;;;10.40;9.30;;;15.60;99.90;;;;;;5051910;28;20240;-43
2021/06/11 01:52:40;;;;;;;10.80;9.70;;;15.60;99.90;;;;;;5051865;28;20299;-44
2021/06/11 01:55:09;;;;;;;9.50;8.52;;;15.60;99.90;;;;;;5051312;28;20204;-44
2021/06/11 01:57:40;;;;;;;10.18;9.07;;;15.60;99.90;;;;;;5052214;28;20214;-44
2021/06/11 02:00:08;;;;;;;11.10;10.05;;;15.60;99.90;;;;;;5051858;28;20200;-43
2021/06/11 02:02:37;;;;;;;10.05;9.15;;;15.60;99.90;;;;;;5052021;28;20242;-44
2021/06/11 02:05:06;;;;;;;10.98;9.98;;;15.50;99.90;;;;;;5051805;28;20295;-45
2021/06/11 02:07:35;;;;;;;9.65;8.77;;;15.50;99.90;;;;;;5051872;28;20579;-45
2021/06/11 02:10:03;;;;;;;10.88;9.77;;;15.50;99.90;;;;;;5051748;28;20227;-47
2021/06/11 02:12:30;;;;;;;10.57;9.55;;;15.50;99.90;;;;;;5051736;28;20211;-44
2021/06/11 02:15:02;;;;;;;11.25;10.27;;;15.40;99.90;;;;;;5051871;28;20212;-45
2021/06/11 02:17:30;;;;;;;11.85;10.75;;;15.40;99.90;;;;;;5051837;28;20295;-44
2021/06/11 02:19:58;;;;;;;10.10;9.30;;;15.40;99.90;;;;;;5051564;28;20754;-44
2021/06/11 02:22:26;;;;;;;12.60;11.30;;;15.40;99.90;;;;;;5051436;28;20318;-43
2021/06/11 02:24:53;;;;;;;11.73;10.73;;;15.30;99.90;;;;;;5051763;28;20210;-46
2021/06/11 02:27:21;;;;;;;11.25;10.25;;;15.30;99.90;;;;;;5051357;28;20212;-43
2021/06/11 02:29:48;;;;;;;10.60;9.35;;;15.30;99.90;;;;;;5051262;28;20228;-43
2021/06/11 02:32:17;;;;;;;10.82;9.82;;;15.30;99.90;;;;;;5051626;28;20350;-46
2021/06/11 02:34:45;;;;;;;10.75;9.68;;;15.30;99.90;;;;;;5051321;28;20212;-43
2021/06/11 02:37:12;;;;;;;10.60;9.60;;;15.30;99.90;;;;;;5051635;28;20295;-43
2021/06/11 02:39:40;;;;;;;11.68;10.02;;;15.30;99.90;;;;;;5051745;28;20299;-44
2021/06/11 02:42:09;;;;;;;10.70;9.80;;;15.30;99.90;;;;;;5051561;28;20231;-44
2021/06/11 02:44:43;;;;;;;11.32;10.30;;;15.30;99.90;;;;;;5051579;28;20235;-43
2021/06/11 02:47:16;;;;;;;11.57;10.57;;;15.30;99.90;;;;;;5051536;28;20221;-42
2021/06/11 02:49:52;;;;;;;10.68;9.68;;;15.30;99.90;;;;;;5051495;28;20232;-43
2021/06/11 02:52:22;;;;;;;9.80;8.88;;;15.30;99.90;;;;;;5051607;28;20572;-46
2021/06/11 02:54:55;;;;;;;10.43;9.43;;;15.30;99.90;;;;;;5051366;28;20208;-47
2021/06/11 02:57:29;;;;;;;10.13;9.13;;;15.30;99.90;;;;;;5051392;28;20227;-44
2021/06/11 03:00:01;;;;;;;11.32;10.23;;;15.30;99.90;;;;;;5051253;28;20214;-44
2021/06/11 03:02:33;;;;;;;9.93;9.02;;;15.30;99.90;;;;;;5051354;28;20299;-44
2021/06/11 03:05:02;;;;;;;9.70;8.90;;;15.20;99.90;;;;;;5051485;28;20295;-45
2021/06/11 03:07:33;;;;;;;10.85;9.77;;;15.20;99.90;;;;;;5055063;28;20204;-48
2021/06/11 03:10:04;;;;;;;14.05;10.55;;;15.20;99.90;;;;;;5054928;28;20228;-44
2021/06/11 03:12:33;;;;;;;10.98;9.77;;;15.20;99.90;;;;;;5054964;28;20303;-46
2021/06/11 03:15:00;;;;;;;11.23;10.10;;;15.20;99.90;;;;;;5055109;28;20298;-44
2021/06/11 03:17:32;;;;;;;10.98;10.05;;;15.20;99.90;;;;;;5054712;28;20226;-48
2021/06/11 03:20:11;;;;;;;11.52;10.30;;;15.20;99.90;;;;;;5054896;28;20204;-44
2021/06/11 03:22:47;;;;;;;11.90;9.88;;;15.20;99.90;;;;;;5054697;28;20311;-43
2021/06/11 03:25:19;;;;;;;10.85;9.82;;;15.10;99.90;;;;;;5054856;28;20216;-46
2021/06/11 03:27:53;;;;;;;11.15;9.93;;;15.20;99.90;;;;;;5054543;28;20251;-45
2021/06/11 03:30:24;;;;;;;11.32;10.05;;;15.20;99.90;;;;;;5054485;28;20227;-43
2021/06/11 03:32:56;;;;;;;11.15;9.75;;;15.20;99.90;;;;;;5054551;28;20211;-44
2021/06/11 03:35:29;;;;;;;10.10;9.05;;;15.20;99.90;;;;;;5054738;28;20687;-43
2021/06/11 03:37:58;;;;;;;10.48;9.57;;;15.20;99.90;;;;;;5054489;28;20208;-43
2021/06/11 03:40:30;;;;;;;10.02;8.90;;;15.30;99.90;;;;;;5054691;28;20299;-39
2021/06/11 03:43:00;;;;;;;9.80;8.98;;;15.30;99.90;;;;;;5054621;28;20218;-46
2021/06/11 03:45:28;;;;;;;19.02;9.63;;;15.40;99.90;;;;;;5054361;28;20234;-45
2021/06/11 03:48:00;;;;;;;11.15;10.07;;;15.40;99.90;;;;;;5054162;28;20302;-45
2021/06/11 03:50:29;;;;;;;11.23;9.30;;;15.50;99.90;;;;;;5054302;28;20228;-43
2021/06/11 03:53:00;;;;;;;11.07;10.13;;;15.50;99.90;;;;;;5054147;28;20687;-44
2021/06/11 03:55:30;;;;;;;11.48;10.48;;;15.60;99.90;;;;;;5054451;28;20318;-45
2021/06/11 03:58:01;;;;;;;11.25;10.10;;;15.60;99.90;;;;;;5054047;28;20215;-44
2021/06/11 04:00:30;;;;;;;9.75;8.75;;;15.60;99.90;;;;;;5054168;28;20240;-49
2021/06/11 04:02:59;;;;;;;14.57;10.38;;;15.70;99.90;;;;;;5054061;28;20295;-47
2021/06/11 04:05:30;;;;;;;10.52;9.52;;;15.80;99.90;;;;;;5053975;28;20212;-44
2021/06/11 04:07:58;;;;;;;12.57;10.07;;;15.80;99.90;;;;;;5053796;28;20299;-43
2021/06/11 04:10:32;;;;;;;10.68;9.65;;;15.90;99.90;;;;;;5053493;28;20818;-45
2021/06/11 04:13:06;;;;;;;11.82;10.73;;;15.90;99.90;;;;;;5053825;28;20208;-45
2021/06/11 04:15:36;;;;;;;10.48;9.57;;;16.00;99.90;;;;;;5053874;28;20231;-47
2021/06/11 04:18:07;;;;;;;11.65;10.48;;;16.00;99.90;;;;;;5053392;28;20316;-47
2021/06/11 04:20:38;;;;;;;13.65;11.57;;;16.10;99.90;;;;;;5053254;28;20267;-43
2021/06/11 04:23:08;;;;;;;10.75;9.75;;;16.20;99.90;;;;;;5053384;28;20208;-43
2021/06/11 04:25:36;;;;;;;12.15;10.75;;;16.20;99.90;;;;;;5053761;28;20299;-44
2021/06/11 04:28:07;;;;;;;11.68;10.57;;;16.30;99.90;;;;;;5053440;28;20204;-45
2021/06/11 04:30:34;;;;;;;11.73;10.63;;;16.30;99.90;;;;;;5053499;28;20655;-48
2021/06/11 04:33:18;;;;;;;10.93;9.93;;;16.30;99.90;;;;;;5053694;28;20215;-46
2021/06/11 04:35:47;;;;;;;10.75;9.25;;;16.40;99.90;;;;;;5053191;28;20291;-43
2021/06/11 04:38:14;;;;;;;13.50;9.90;;;16.50;99.90;;;;;;5053297;28;20642;-45
2021/06/11 04:40:42;;;;;;;10.68;9.52;;;16.50;99.90;;;;;;5053614;28;20204;-44
2021/06/11 04:43:10;;;;;;;12.30;9.23;;;16.60;99.90;;;;;;5053404;28;20216;-45
2021/06/11 04:45:38;;;;;;;10.23;9.20;;;16.70;99.90;;;;;;5053411;28;20220;-43
2021/06/11 04:48:06;;;;;;;9.50;8.57;;;16.80;99.90;;;;;;5053219;28;20235;-47
2021/06/11 04:50:34;;;;;;;10.85;9.52;;;16.90;99.90;;;;;;5053357;28;20317;-44
2021/06/11 04:53:03;;;;;;;11.80;10.45;;;16.90;99.90;;;;;;5053282;28;20204;-43
2021/06/11 04:55:30;;;;;;;11.88;9.98;;;17.00;99.90;;;;;;5053254;28;20204;-44
2021/06/11 04:57:58;;;;;;;11.02;9.98;;;17.00;99.90;;;;;;5053139;28;20310;-43
2021/06/11 05:00:25;;;;;;;10.82;9.55;;;17.00;99.90;;;;;;5052751;28;20212;-46
2021/06/11 05:02:53;;;;;;;11.20;10.10;;;17.10;99.90;;;;;;5052659;28;20208;-45
2021/06/11 05:05:21;;;;;;;11.35;10.35;;;17.20;99.90;;;;;;5052713;28;20307;-45
2021/06/11 05:07:48;;;;;;;12.20;11.00;;;17.40;99.90;;;;;;5052831;28;20691;-44
2021/06/11 05:10:17;;;;;;;11.43;10.35;;;17.50;99.90;;;;;;5052534;28;20224;-44
2021/06/11 05:12:44;;;;;;;12.60;11.32;;;17.70;99.90;;;;;;5052561;28;20670;-45
2021/06/11 05:15:13;;;;;;;10.93;9.82;;;17.90;99.90;;;;;;5052475;28;20208;-47
2021/06/11 05:17:40;;;;;;;12.20;10.20;;;18.00;99.90;;;;;;5052364;28;20208;-47
2021/06/11 05:20:09;;;;;;;10.38;9.35;;;18.10;99.90;;;;;;5052311;28;20558;-45
2021/06/11 05:22:37;;;;;;;8.93;8.02;;;18.20;99.90;;;;;;5052114;28;20329;-44
2021/06/11 05:25:05;;;;;;;8.63;7.82;;;18.30;99.90;;;;;;5052024;28;20208;-46
2021/06/11 05:27:34;;;;;;;8.65;7.82;;;18.30;99.90;;;;;;5052337;28;20611;-47
2021/06/11 05:30:02;;;;;;;7.95;7.25;;;18.20;99.90;;;;;;5051402;28;20322;-44
2021/06/11 05:32:29;;;;;;;10.05;7.47;;;18.20;99.90;;;;;;5052234;28;20214;-45
2021/06/11 05:34:57;;;;;;;9.73;6.95;;;18.20;99.90;;;;;;5052238;28;20721;-46
2021/06/11 05:37:24;;;;;;;8.55;7.80;;;18.20;99.90;;;;;;5052283;28;20214;-48
2021/06/11 05:39:51;;;;;;;9.57;8.65;;;18.30;99.90;;;;;;5052102;28;20548;-44
2021/06/11 05:42:19;;;;;;;12.55;7.97;;;18.40;99.90;;;;;;5052071;28;20294;-43
2021/06/11 05:44:47;;;;;;;7.82;7.05;;;18.40;99.90;;;;;;5051923;28;20294;-46
2021/06/11 05:47:15;;;;;;;8.90;8.10;;;18.40;99.90;;;;;;5051560;28;20208;-43
2021/06/11 05:49:42;;;;;;;11.15;8.05;;;18.50;99.90;;;;;;5051748;28;20685;-43
2021/06/11 05:52:10;;;;;;;12.43;8.85;;;18.50;99.90;;;;;;5051939;28;20208;-45
2021/06/11 05:54:37;;;;;;;9.23;8.32;;;18.50;99.90;;;;;;5051635;28;20717;-45
2021/06/11 05:57:05;;;;;;;9.25;8.45;;;18.50;99.90;;;;;;5051673;28;20283;-44
2021/06/11 05:59:32;;;;;;;12.18;8.13;;;18.60;99.90;;;;;;5052085;28;20673;-43
2021/06/11 06:02:01;;;;;;;9.10;8.23;;;18.60;99.90;;;;;;5051731;28;20243;-43
2021/06/11 06:04:29;;;;;;;8.77;8.02;;;18.60;99.90;;;;;;5051786;28;20304;-43
2021/06/11 06:06:58;;;;;;;9.00;8.15;;;18.60;99.90;;;;;;5051652;28;20243;-46
2021/06/11 06:09:25;;;;;;;9.55;8.65;;;18.60;99.90;;;;;;5051637;28;20709;-43
2021/06/11 06:11:53;;;;;;;10.25;8.63;;;18.70;99.90;;;;;;5051976;28;20793;-46
2021/06/11 06:14:20;;;;;;;9.20;8.30;;;18.70;99.90;;;;;;5051209;28;20208;-43
2021/06/11 06:16:48;;;;;;;8.70;7.70;;;18.80;99.90;;;;;;5051611;28;20242;-45
2021/06/11 06:19:16;;;;;;;8.30;7.50;;;18.90;99.90;;;;;;5051747;28;20229;-47
2021/06/11 06:21:46;;;;;;;10.00;7.65;;;19.00;99.90;;;;;;5051299;28;20267;-43
2021/06/11 06:24:14;;;;;;;8.48;6.82;;;19.00;99.90;;;;;;5051509;28;20354;-42
2021/06/11 06:26:41;;;;;;;8.77;7.88;;;19.20;99.90;;;;;;5051512;28;20208;-42
2021/06/11 06:29:08;;;;;;;8.57;7.55;;;19.30;99.90;;;;;;5051399;28;20348;-45
2021/06/11 06:31:36;;;;;;;8.80;7.50;;;19.40;99.90;;;;;;5051189;28;20789;-44
2021/06/11 06:34:04;;;;;;;7.40;6.80;;;19.50;99.90;;;;;;5051261;28;20212;-46
2021/06/11 06:36:33;;;;;;;8.10;7.28;;;19.60;99.90;;;;;;5051292;28;20239;-42
2021/06/11 06:39:03;;;;;;;7.03;6.45;;;19.70;99.90;;;;;;5051815;28;20219;-43
2021/06/11 06:41:30;;;;;;;8.90;8.20;;;19.90;99.90;;;;;;5054094;28;20239;-45
2021/06/11 06:43:58;;;;;;;13.32;8.25;;;20.00;99.90;;;;;;5055329;28;20294;-43
2021/06/11 06:46:25;;;;;;;6.80;6.20;;;20.10;99.90;;;;;;5055282;28;20243;-45
2021/06/11 06:48:54;;;;;;;7.70;7.00;;;20.20;99.90;;;;;;5055294;28;20302;-49
2021/06/11 06:51:25;;;;;;;10.15;6.55;;;20.20;99.90;;;;;;5055322;28;20367;-45
2021/06/11 06:53:55;;;;;;;6.75;6.15;;;20.30;99.90;;;;;;5055258;28;20298;-47
2021/06/11 06:56:24;;;;;;;6.88;6.32;;;20.30;99.90;;;;;;5055085;28;20652;-47
2021/06/11 06:58:52;;;;;;;8.30;6.72;;;20.40;99.90;;;;;;5055061;28;20322;-41
2021/06/11 07:01:20;;;;;;;7.45;6.72;;;20.60;99.90;;;;;;5055064;28;20370;-42
2021/06/11 07:03:47;;;;;;;7.80;7.07;;;20.60;99.90;;;;;;5054915;28;20235;-45
2021/06/11 07:06:15;;;;;;;7.82;7.03;;;20.70;99.90;;;;;;5055195;28;20294;-44
2021/06/11 07:08:42;;;;;;;7.93;6.47;;;20.80;99.90;;;;;;5055122;28;20212;-45
2021/06/11 07:11:11;;;;;;;6.88;6.28;;;20.90;99.90;;;;;;5055014;28;20696;-43
2021/06/11 07:13:38;;;;;;;7.13;6.43;;;21.00;99.90;;;;;;5054940;28;20294;-42
2021/06/11 07:16:06;;;;;;;12.50;8.45;;;21.10;99.90;;;;;;5054738;28;20212;-43
2021/06/11 07:18:33;;;;;;;8.48;7.68;;;21.10;99.90;;;;;;5054728;28;20216;-42
2021/06/11 07:21:01;;;;;;;8.02;7.10;;;21.20;99.90;;;;;;5054441;28;20232;-41
2021/06/11 07:23:31;;;;;;;6.57;6.07;;;21.20;99.90;;;;;;5054559;28;20308;-41
2021/06/11 07:25:58;;;;;;;7.55;5.93;;;21.30;99.90;;;;;;5054647;28;20287;-40
2021/06/11 07:28:27;;;;;;;8.45;7.75;;;21.30;99.90;;;;;;5054470;28;20231;-41
2021/06/11 07:30:55;;;;;;;8.40;7.60;;;21.20;99.80;;;;;;5054670;28;20314;-41
2021/06/11 07:33:22;;;;;;;6.82;6.22;;;21.20;99.90;;;;;;5054631;28;20278;-41
2021/06/11 07:35:50;;;;;;;8.23;7.22;;;21.10;99.90;;;;;;5054374;28;20782;-41
2021/06/11 07:38:17;;;;;;;8.95;8.15;;;21.20;99.80;;;;;;5054355;28;20578;-40
2021/06/11 07:40:57;;;;;;;8.15;7.30;;;21.20;99.90;;;;;;5053895;28;20328;-43
2021/06/11 07:43:25;;;;;;;8.38;7.57;;;21.30;99.60;;;;;;5054313;28;20738;-40
2021/06/11 07:45:53;;;;;;;7.70;7.10;;;21.40;99.50;;;;;;5054418;28;20254;-40
2021/06/11 07:48:21;;;;;;;6.88;6.30;;;21.50;99.20;;;;;;5054072;28;20230;-43
2021/06/11 07:50:49;;;;;;;6.32;5.82;;;21.60;98.90;;;;;;5053926;28;20760;-41
2021/06/11 07:53:17;;;;;;;6.20;5.32;;;21.80;98.60;;;;;;5053169;28;20254;-41
2021/06/11 07:55:44;;;;;;;6.18;5.68;;;21.90;98.30;;;;;;5053956;28;20212;-42
2021/06/11 07:58:12;;;;;;;6.60;6.05;;;22.00;98.00;;;;;;5054046;28;20751;-42
2021/06/11 08:00:39;;;;;;;5.00;4.65;;;22.20;97.70;;;;;;5054024;28;20298;-45
2021/06/11 08:03:08;;;;;;;5.72;4.70;;;22.20;97.40;;;;;;5053778;28;20212;-45
2021/06/11 08:05:39;;;;;;;4.75;4.25;;;22.20;97.10;;;;;;5053905;28;20218;-45
2021/06/11 08:08:06;;;;;;;5.68;5.28;;;22.30;96.90;;;;;;5053771;28;20631;-47
2021/06/11 08:10:34;;;;;;;5.50;5.00;;;22.30;97.00;;;;;;5053620;28;20656;-45
2021/06/11 08:13:03;;;;;;;7.00;6.40;;;22.30;96.70;;;;;;5053774;28;20295;-45
2021/06/11 08:15:31;;;;;;;5.82;5.32;;;22.30;96.50;;;;;;5053821;28;20219;-44
2021/06/11 08:17:59;;;;;;;6.38;5.88;;;22.30;96.70;;;;;;5053647;28;20291;-47
2021/06/11 08:20:28;;;;;;;6.15;5.55;;;22.30;96.60;;;;;;5053359;28;20204;-48
2021/06/11 08:22:56;;;;;;;5.35;4.90;;;22.30;96.50;;;;;;5053828;28;20287;-45
2021/06/11 08:25:24;;;;;;;5.25;4.85;;;22.30;96.50;;;;;;5053380;28;20214;-44
2021/06/11 08:27:51;;;;;;;5.78;5.38;;;22.30;96.50;;;;;;5053618;28;20302;-45
2021/06/11 08:30:20;;;;;;;4.95;4.55;;;22.30;96.40;;;;;;5053413;28;20211;-44
2021/06/11 08:32:48;;;;;;;5.35;4.75;;;22.40;96.30;;;;;;5053014;28;20606;-44
2021/06/11 08:35:17;;;;;;;5.20;4.80;;;22.40;96.10;;;;;;5053254;28;20212;-44
2021/06/11 08:37:46;;;;;;;4.93;4.53;;;22.50;96.10;;;;;;5053049;28;20568;-43
2021/06/11 08:40:15;;;;;;;4.60;4.30;;;22.50;95.90;;;;;;5053152;28;20212;-44
2021/06/11 08:42:43;;;;;;;5.88;5.28;;;22.70;95.70;;;;;;5053068;28;20731;-46
2021/06/11 08:45:12;;;;;;;5.13;4.72;;;22.80;95.60;;;;;;5052957;28;20667;-45
2021/06/11 08:47:46;;;;;;;6.18;5.25;;;22.80;95.50;;;;;;5052674;28;20220;-40
2021/06/11 08:50:15;;;;;;;5.20;4.80;;;22.90;95.40;;;;;;5052960;28;20222;-41
2021/06/11 08:52:43;;;;;;;7.13;6.50;;;22.90;95.20;;;;;;5052675;28;20270;-42
2021/06/11 08:55:13;;;;;;;5.95;4.85;;;23.10;95.00;;;;;;5052854;28;20213;-41
2021/06/11 08:57:41;;;;;;;6.18;5.57;;;23.20;94.80;;;;;;5052920;28;20215;-42
2021/06/11 09:00:10;;;;;;;7.80;5.53;;;23.40;94.40;;;;;;5052799;28;20239;-41
2021/06/11 09:03:11;;;;;;;5.30;4.80;;;23.40;94.30;;;;;;5052822;28;20261;-41
2021/06/11 09:05:40;;;;;;;9.20;6.25;;;23.40;94.00;;;;;;5052770;28;20636;-42
2021/06/11 09:08:15;;;;;;;6.57;6.07;;;23.40;94.40;;;;;;5052705;28;20250;-43
2021/06/11 09:10:45;;;;;;;4.65;4.25;;;23.50;93.70;;;;;;5052684;28;20299;-47
2021/06/11 09:13:22;;;;;;;8.40;4.55;;;23.60;93.10;;;;;;5052848;28;20215;-44
2021/06/11 09:15:49;;;;;;;5.15;4.68;;;23.60;91.70;;;;;;5052495;28;20302;-42
2021/06/11 09:18:22;;;;;;;5.80;5.40;;;23.50;91.90;;;;;;5052245;28;20215;-42
2021/06/11 09:20:50;;;;;;;4.78;4.47;;;23.60;91.90;;;;;;5052354;28;20244;-42
2021/06/11 09:23:18;;;;;;;5.30;4.53;;;23.60;91.90;;;;;;5052342;28;20303;-44
2021/06/11 09:25:49;;;;;;;7.30;6.65;;;23.70;91.40;;;;;;5052431;28;20303;-46
2021/06/11 09:28:22;;;;;;;6.53;5.93;;;23.90;91.60;;;;;;5052288;28;20215;-46
2021/06/11 09:30:52;;;;;;;9.55;5.70;;;23.90;91.80;;;;;;5051887;28;20234;-47
2021/06/11 09:33:21;;;;;;;6.00;4.95;;;23.90;91.80;;;;;;5052033;28;20638;-45
2021/06/11 09:35:54;;;;;;;6.00;4.93;;;23.80;91.80;;;;;;5052300;28;20613;-46
2021/06/11 09:38:25;;;;;;;7.47;4.95;;;23.80;91.70;;;;;;5052153;28;20236;-44
2021/06/11 09:41:08;;;;;;;5.13;4.72;;;23.90;91.60;;;;;;5051898;28;20576;-43
2021/06/11 09:43:53;;;;;;;5.90;5.50;;;24.00;91.50;;;;;;5051831;28;20208;-47
2021/06/11 09:46:20;;;;;;;5.63;5.10;;;24.00;91.40;;;;;;5052104;28;20291;-44
2021/06/11 09:48:50;;;;;;;6.55;5.95;;;24.00;91.20;;;;;;5051746;28;20208;-45
2021/06/11 09:51:19;;;;;;;6.15;5.68;;;24.00;91.10;;;;;;5052058;28;20289;-47
2021/06/11 09:53:47;;;;;;;5.95;5.45;;;24.00;91.20;;;;;;5051939;28;20207;-50
2021/06/11 09:56:24;;;;;;;6.45;5.93;;;24.00;91.00;;;;;;5051776;28;20298;-43
2021/06/11 09:58:53;;;;;;;5.82;5.43;;;24.00;90.70;;;;;;5051962;28;20214;-46
2021/06/11 10:01:20;;;;;;;6.50;5.95;;;24.00;90.30;;;;;;5051829;28;20204;-43
2021/06/11 10:03:50;;;;;;;6.10;5.60;;;24.00;90.10;;;;;;5051803;28;20222;-44
2021/06/11 10:06:19;;;;;;;8.68;7.97;;;24.10;90.00;;;;;;5051547;28;20247;-43
2021/06/11 10:08:48;;;;;;;6.53;5.85;;;24.10;90.00;;;;;;5051543;28;20207;-44
2021/06/11 10:11:18;;;;;;;7.05;6.45;;;24.20;90.00;;;;;;5051452;28;20555;-42
2021/06/11 10:13:47;;;;;;;6.07;5.47;;;24.30;90.00;;;;;;5051598;28;20240;-47
2021/06/11 10:16:18;;;;;;;6.25;5.75;;;24.50;89.20;;;;;;5051022;28;20410;-45
2021/06/11 10:18:46;;;;;;;6.75;5.70;;;24.60;88.30;;;;;;5051595;28;20270;-44
2021/06/11 10:21:14;;;;;;;30.33;11.27;;;24.60;88.00;;;;;;5051353;28;20326;-48
2021/06/11 10:23:42;;;;;;;5.90;5.50;;;24.70;87.70;;;;;;5051707;28;20294;-46
2021/06/11 10:26:11;;;;;;;5.38;4.93;;;24.80;87.40;;;;;;5051514;28;20218;-47
2021/06/11 10:28:41;;;;;;;5.05;4.65;;;24.90;86.80;;;;;;5051397;28;20238;-48
2021/06/11 10:31:12;;;;;;;5.65;5.25;;;24.80;86.50;;;;;;5051303;28;20247;-44
2021/06/11 10:33:55;;;;;;;5.60;5.20;;;24.80;85.40;;;;;;5051268;28;20298;-46
2021/06/11 10:36:38;;;;;;;5.53;5.13;;;24.90;84.40;;;;;;5051554;28;20262;-44
2021/06/11 10:39:25;;;;;;;5.30;4.90;;;25.00;83.40;;;;;;5051462;28;20243;-47
2021/06/11 10:41:56;;;;;;;5.78;5.38;;;25.10;82.60;;;;;;5051111;28;20214;-45
2021/06/11 10:44:35;;;;;;;5.20;4.82;;;25.20;82.70;;;;;;5051235;28;20613;-45
2021/06/11 10:47:30;;;;;;;5.38;4.88;;;25.30;82.00;;;;;;5051316;28;20242;-47
2021/06/11 10:50:13;;;;;;;6.13;5.53;;;25.40;82.00;;;;;;5051328;28;20278;-45
2021/06/11 10:52:47;;;;;;;4.57;4.18;;;25.40;82.00;;;;;;5050383;28;20230;-47
2021/06/11 10:55:48;;;;;;;4.82;4.38;;;25.20;82.90;;;;;;5051229;28;20224;-49
2021/06/11 10:58:32;;;;;;;4.13;3.83;;;25.10;81.30;;;;;;5051127;28;20204;-48
2021/06/11 11:01:20;;;;;;;6.05;4.80;;;25.00;80.70;;;;;;5051078;28;20216;-50
2021/06/11 11:03:49;;;;;;;4.53;4.22;;;25.00;81.70;;;;;;5051243;28;20208;-48
2021/06/11 11:06:31;;;;;;;4.90;4.43;;;25.00;81.00;;;;;;5051147;28;20208;-49
2021/06/11 11:09:02;;;;;;;7.20;6.55;;;25.00;80.40;;;;;;5051110;28;20671;-43
2021/06/11 11:11:32;;;;;;;11.00;9.93;;;25.10;79.90;;;;;;5050994;28;20650;-46
2021/06/11 11:14:00;;;;;;;5.05;4.57;;;25.30;79.30;;;;;;5051267;28;20306;-42
2021/06/11 11:16:34;;;;;;;13.55;11.70;;;25.50;78.90;;;;;;5050991;28;20308;-47
2021/06/11 11:19:05;;;;;;;9.50;8.73;;;25.50;78.90;;;;;;5051004;28;20659;-49
2021/06/11 11:21:35;;;;;;;5.45;4.95;;;25.60;79.10;;;;;;5050851;28;20710;-43
2021/06/11 11:24:05;;;;;;;5.55;5.15;;;25.60;79.10;;;;;;5050934;28;20247;-42
2021/06/11 11:26:41;;;;;;;6.13;5.65;;;25.60;79.00;;;;;;5050883;28;20692;-44
2021/06/11 11:29:09;;;;;;;5.75;5.28;;;25.50;79.20;;;;;;5054369;28;20299;-43
2021/06/11 11:31:37;;;;;;;17.33;15.73;;;25.40;79.50;;;;;;5054379;28;20211;-45
2021/06/11 11:34:06;;;;;;;5.25;4.85;;;25.50;79.00;;;;;;5054314;28;20208;-45
2021/06/11 11:36:35;;;;;;;4.50;4.20;;;25.60;78.20;;;;;;5054159;28;20295;-43
2021/06/11 11:39:05;;;;;;;6.40;5.75;;;25.80;77.30;;;;;;5054229;28;20640;-45
2021/06/11 11:41:33;;;;;;;4.70;4.40;;;25.80;77.10;;;;;;5054484;28;20204;-46
2021/06/11 11:44:08;;;;;;;5.72;5.22;;;25.90;77.50;;;;;;5054228;28;20623;-44
2021/06/11 11:46:52;;;;;;;4.72;4.43;;;25.90;77.60;;;;;;5054414;28;20212;-44
2021/06/11 11:49:21;;;;;;;5.57;5.07;;;25.80;77.40;;;;;;5054240;28;20700;-43
2021/06/11 11:51:50;;;;;;;6.28;4.45;;;25.60;77.10;;;;;;5054071;28;20307;-46
2021/06/11 11:54:18;;;;;;;5.90;4.57;;;25.60;76.40;;;;;;5054184;28;20246;-47
2021/06/11 11:56:45;;;;;;;4.43;4.05;;;25.60;76.20;;;;;;5054050;28;20239;-42
2021/06/11 11:59:16;;;;;;;4.63;4.20;;;25.70;75.40;;;;;;5054152;28;20207;-42
2021/06/11 12:01:44;;;;;;;4.28;3.88;;;25.80;74.70;;;;;;5054115;28;20208;-45
2021/06/11 12:04:13;;;;;;;5.07;4.68;;;26.00;75.00;;;;;;5054233;28;20208;-48
2021/06/11 12:06:43;;;;;;;4.90;4.60;;;26.10;74.80;;;;;;5053805;28;20709;-44
2021/06/11 12:09:11;;;;;;;5.15;4.65;;;26.10;74.70;;;;;;5053761;28;20210;-47
2021/06/11 12:11:39;;;;;;;4.93;4.53;;;26.20;74.90;;;;;;5053623;28;20208;-46
2021/06/11 12:14:07;;;;;;;6.07;5.57;;;26.30;75.00;;;;;;5053538;28;20571;-45
2021/06/11 12:16:35;;;;;;;5.28;4.88;;;26.30;75.80;;;;;;5053788;28;20262;-44
2021/06/11 12:19:02;;;;;;;5.03;4.40;;;26.30;75.00;;;;;;5053726;28;20254;-44
2021/06/11 12:21:30;;;;;;;8.32;7.63;;;26.30;75.70;;;;;;5053570;28;20244;-45
2021/06/11 12:23:59;;;;;;;6.72;6.25;;;26.20;75.10;;;;;;5053440;28;20516;-45
2021/06/11 12:26:27;;;;;;;7.03;5.07;;;26.30;75.20;;;;;;5053199;28;20291;-46
2021/06/11 12:28:54;;;;;;;5.20;4.80;;;26.40;74.70;;;;;;5053403;28;20212;-48
2021/06/11 12:31:22;;;;;;;5.85;5.35;;;26.50;74.30;;;;;;5053707;28;20258;-45
2021/06/11 12:33:50;;;;;;;5.32;4.72;;;26.60;74.10;;;;;;5053178;28;20239;-46
2021/06/11 12:36:17;;;;;;;5.30;4.90;;;26.60;73.60;;;;;;5053441;28;20613;-48
2021/06/11 12:38:45;;;;;;;5.75;4.75;;;26.60;73.50;;;;;;5053051;28;20212;-47
2021/06/11 12:41:15;;;;;;;4.72;4.32;;;26.70;73.30;;;;;;5053355;28;20291;-47
2021/06/11 12:46:29;;;;;;;4.70;4.40;;;26.70;72.80;;;;;;5053543;28;20303;-44
2021/06/11 12:49:00;;;;;;;6.22;5.72;;;26.80;71.90;;;;;;5053739;28;20301;-47
2021/06/11 12:51:31;;;;;;;5.18;4.75;;;26.80;71.00;;;;;;5053248;28;20302;-43
2021/06/11 12:53:59;;;;;;;4.30;4.00;;;27.00;70.50;;;;;;5053192;28;20231;-42
2021/06/11 12:56:29;;;;;;;3.83;3.53;;;27.10;69.10;;;;;;5052955;28;20702;-44
2021/06/11 12:58:56;;;;;;;4.00;3.58;;;27.00;68.00;;;;;;5052959;28;20212;-44